sensor_id;sensor_type;location;lat;lon;timestamp;P1;durP1;ratioP1;P2;durP2;ratioP2
12816;SDS011;6473;51.552;6.716;2023-11-21T00:01:57;18.93;;;11.17;;
12816;SDS011;6473;51.552;6.716;2023-11-21T00:04:24;19.40;;;11.97;;
12816;SDS011;6473;51.552;6.716;2023-11-21T00:06:55;17.90;;;10.03;;
12816;SDS011;6473;51.552;6.716;2023-11-21T00:09:23;19.17;;;11.17;;
12816;SDS011;6473;51.552;6.716;2023-11-21T00:11:50;16.88;;;11.30;;
12816;SDS011;6473;51.552;6.716;2023-11-21T00:14:17;18.63;;;11.10;;
12816;SDS011;6473;51.552;6.716;2023-11-21T00:16:44;21.20;;;10.60;;
12816;SDS011;6473;51.552;6.716;2023-11-21T00:19:11;15.83;;;11.10;;
12816;SDS011;6473;51.552;6.716;2023-11-21T00:21:38;18.60;;;11.70;;
12816;SDS011;6473;51.552;6.716;2023-11-21T00:24:05;14.93;;;10.50;;
12816;SDS011;6473;51.552;6.716;2023-11-21T00:26:34;16.73;;;11.00;;
12816;SDS011;6473;51.552;6.716;2023-11-21T00:29:03;18.53;;;10.83;;
12816;SDS011;6473;51.552;6.716;2023-11-21T00:31:33;21.43;;;11.57;;
12816;SDS011;6473;51.552;6.716;2023-11-21T00:34:03;17.98;;;12.15;;
12816;SDS011;6473;51.552;6.716;2023-11-21T00:36:30;18.02;;;10.60;;
12816;SDS011;6473;51.552;6.716;2023-11-21T00:38:57;18.60;;;11.07;;
12816;SDS011;6473;51.552;6.716;2023-11-21T00:41:24;18.30;;;11.43;;
12816;SDS011;6473;51.552;6.716;2023-11-21T00:43:53;19.05;;;11.13;;
12816;SDS011;6473;51.552;6.716;2023-11-21T00:46:21;18.10;;;11.20;;
12816;SDS011;6473;51.552;6.716;2023-11-21T00:48:52;19.83;;;10.63;;
12816;SDS011;6473;51.552;6.716;2023-11-21T00:51:26;19.85;;;11.35;;
12816;SDS011;6473;51.552;6.716;2023-11-21T00:53:53;17.42;;;10.80;;
12816;SDS011;6473;51.552;6.716;2023-11-21T00:56:20;15.75;;;11.10;;
12816;SDS011;6473;51.552;6.716;2023-11-21T00:58:47;12.75;;;9.45;;
12816;SDS011;6473;51.552;6.716;2023-11-21T01:05:21;18.55;;;10.32;;
12816;SDS011;6473;51.552;6.716;2023-11-21T01:07:48;18.63;;;9.90;;
12816;SDS011;6473;51.552;6.716;2023-11-21T01:10:16;15.13;;;9.25;;
12816;SDS011;6473;51.552;6.716;2023-11-21T01:12:43;16.23;;;9.43;;
12816;SDS011;6473;51.552;6.716;2023-11-21T01:15:10;14.35;;;10.07;;
12816;SDS011;6473;51.552;6.716;2023-11-21T01:17:38;19.58;;;10.45;;
12816;SDS011;6473;51.552;6.716;2023-11-21T01:20:22;14.25;;;10.27;;
12816;SDS011;6473;51.552;6.716;2023-11-21T01:22:49;17.70;;;9.45;;
12816;SDS011;6473;51.552;6.716;2023-11-21T01:25:16;18.73;;;10.02;;
12816;SDS011;6473;51.552;6.716;2023-11-21T01:27:43;16.05;;;9.75;;
12816;SDS011;6473;51.552;6.716;2023-11-21T01:30:10;13.23;;;9.13;;
12816;SDS011;6473;51.552;6.716;2023-11-21T01:32:37;19.90;;;10.68;;
12816;SDS011;6473;51.552;6.716;2023-11-21T01:35:05;16.80;;;11.13;;
12816;SDS011;6473;51.552;6.716;2023-11-21T01:37:35;15.10;;;10.18;;
12816;SDS011;6473;51.552;6.716;2023-11-21T01:40:04;15.90;;;10.38;;
12816;SDS011;6473;51.552;6.716;2023-11-21T01:42:35;15.88;;;10.50;;
12816;SDS011;6473;51.552;6.716;2023-11-21T01:45:02;20.77;;;11.20;;
12816;SDS011;6473;51.552;6.716;2023-11-21T01:47:30;17.38;;;11.38;;
12816;SDS011;6473;51.552;6.716;2023-11-21T01:49:57;17.83;;;11.43;;
12816;SDS011;6473;51.552;6.716;2023-11-21T01:52:25;17.08;;;11.45;;
12816;SDS011;6473;51.552;6.716;2023-11-21T01:54:56;19.38;;;10.80;;
12816;SDS011;6473;51.552;6.716;2023-11-21T01:57:25;24.70;;;11.77;;
12816;SDS011;6473;51.552;6.716;2023-11-21T01:59:52;16.38;;;12.45;;
12816;SDS011;6473;51.552;6.716;2023-11-21T02:02:20;20.88;;;11.82;;
12816;SDS011;6473;51.552;6.716;2023-11-21T02:04:47;20.73;;;12.73;;
12816;SDS011;6473;51.552;6.716;2023-11-21T02:07:14;20.80;;;12.52;;
12816;SDS011;6473;51.552;6.716;2023-11-21T02:09:44;20.63;;;14.40;;
12816;SDS011;6473;51.552;6.716;2023-11-21T02:12:12;21.27;;;13.77;;
12816;SDS011;6473;51.552;6.716;2023-11-21T02:14:40;19.27;;;13.85;;
12816;SDS011;6473;51.552;6.716;2023-11-21T02:17:08;19.67;;;13.25;;
12816;SDS011;6473;51.552;6.716;2023-11-21T02:22:32;23.85;;;12.57;;
12816;SDS011;6473;51.552;6.716;2023-11-21T02:25:07;24.77;;;12.70;;
12816;SDS011;6473;51.552;6.716;2023-11-21T02:27:34;18.40;;;12.55;;
12816;SDS011;6473;51.552;6.716;2023-11-21T02:30:02;21.63;;;13.02;;
12816;SDS011;6473;51.552;6.716;2023-11-21T02:32:30;19.63;;;12.55;;
12816;SDS011;6473;51.552;6.716;2023-11-21T02:34:57;21.77;;;12.60;;
12816;SDS011;6473;51.552;6.716;2023-11-21T02:37:27;23.33;;;13.23;;
12816;SDS011;6473;51.552;6.716;2023-11-21T02:39:54;20.15;;;13.15;;
12816;SDS011;6473;51.552;6.716;2023-11-21T02:42:22;25.38;;;13.07;;
12816;SDS011;6473;51.552;6.716;2023-11-21T02:44:49;19.08;;;12.40;;
12816;SDS011;6473;51.552;6.716;2023-11-21T02:47:16;21.38;;;13.52;;
12816;SDS011;6473;51.552;6.716;2023-11-21T02:49:43;17.90;;;12.32;;
12816;SDS011;6473;51.552;6.716;2023-11-21T02:52:16;20.90;;;12.27;;
12816;SDS011;6473;51.552;6.716;2023-11-21T02:54:43;23.20;;;12.85;;
12816;SDS011;6473;51.552;6.716;2023-11-21T02:57:09;22.08;;;13.32;;
12816;SDS011;6473;51.552;6.716;2023-11-21T02:59:38;23.30;;;13.00;;
12816;SDS011;6473;51.552;6.716;2023-11-21T03:02:05;21.65;;;13.05;;
12816;SDS011;6473;51.552;6.716;2023-11-21T03:04:33;22.48;;;13.05;;
12816;SDS011;6473;51.552;6.716;2023-11-21T03:07:00;20.77;;;12.65;;
12816;SDS011;6473;51.552;6.716;2023-11-21T03:09:27;20.30;;;12.27;;
12816;SDS011;6473;51.552;6.716;2023-11-21T03:11:54;22.45;;;13.32;;
12816;SDS011;6473;51.552;6.716;2023-11-21T03:14:31;23.38;;;13.55;;
12816;SDS011;6473;51.552;6.716;2023-11-21T03:17:00;21.80;;;12.93;;
12816;SDS011;6473;51.552;6.716;2023-11-21T03:19:27;25.38;;;13.43;;
12816;SDS011;6473;51.552;6.716;2023-11-21T03:21:54;18.17;;;11.82;;
12816;SDS011;6473;51.552;6.716;2023-11-21T03:24:22;25.27;;;12.95;;
12816;SDS011;6473;51.552;6.716;2023-11-21T03:26:49;22.17;;;12.55;;
12816;SDS011;6473;51.552;6.716;2023-11-21T03:29:17;26.60;;;14.18;;
12816;SDS011;6473;51.552;6.716;2023-11-21T03:31:44;22.35;;;13.63;;
12816;SDS011;6473;51.552;6.716;2023-11-21T03:34:14;24.83;;;13.85;;
12816;SDS011;6473;51.552;6.716;2023-11-21T03:36:42;27.98;;;14.00;;
12816;SDS011;6473;51.552;6.716;2023-11-21T03:39:11;29.20;;;14.30;;
12816;SDS011;6473;51.552;6.716;2023-11-21T03:41:38;27.02;;;14.82;;
12816;SDS011;6473;51.552;6.716;2023-11-21T03:44:05;25.95;;;14.65;;
12816;SDS011;6473;51.552;6.716;2023-11-21T03:46:32;29.90;;;15.20;;
12816;SDS011;6473;51.552;6.716;2023-11-21T03:48:59;28.70;;;14.38;;
12816;SDS011;6473;51.552;6.716;2023-11-21T03:51:27;30.02;;;16.27;;
12816;SDS011;6473;51.552;6.716;2023-11-21T03:53:54;28.55;;;15.40;;
12816;SDS011;6473;51.552;6.716;2023-11-21T03:56:21;32.08;;;15.73;;
12816;SDS011;6473;51.552;6.716;2023-11-21T03:58:48;30.75;;;15.15;;
12816;SDS011;6473;51.552;6.716;2023-11-21T04:01:19;28.40;;;14.98;;
12816;SDS011;6473;51.552;6.716;2023-11-21T04:03:47;28.00;;;15.18;;
12816;SDS011;6473;51.552;6.716;2023-11-21T04:06:14;28.77;;;14.82;;
12816;SDS011;6473;51.552;6.716;2023-11-21T04:08:43;31.10;;;15.63;;
12816;SDS011;6473;51.552;6.716;2023-11-21T04:11:11;30.05;;;15.82;;
12816;SDS011;6473;51.552;6.716;2023-11-21T04:13:38;30.30;;;15.60;;
12816;SDS011;6473;51.552;6.716;2023-11-21T04:16:05;29.77;;;14.75;;
12816;SDS011;6473;51.552;6.716;2023-11-21T04:18:33;29.55;;;15.80;;
12816;SDS011;6473;51.552;6.716;2023-11-21T04:21:05;29.98;;;16.23;;
12816;SDS011;6473;51.552;6.716;2023-11-21T04:23:33;26.15;;;16.05;;
12816;SDS011;6473;51.552;6.716;2023-11-21T04:26:02;31.80;;;16.85;;
12816;SDS011;6473;51.552;6.716;2023-11-21T04:28:29;29.23;;;16.95;;
12816;SDS011;6473;51.552;6.716;2023-11-21T04:30:56;32.83;;;16.90;;
12816;SDS011;6473;51.552;6.716;2023-11-21T04:33:23;32.47;;;17.58;;
12816;SDS011;6473;51.552;6.716;2023-11-21T04:35:50;27.15;;;16.33;;
12816;SDS011;6473;51.552;6.716;2023-11-21T04:38:17;31.77;;;16.77;;
12816;SDS011;6473;51.552;6.716;2023-11-21T04:40:44;30.10;;;16.85;;
12816;SDS011;6473;51.552;6.716;2023-11-21T04:43:13;32.17;;;17.73;;
12816;SDS011;6473;51.552;6.716;2023-11-21T04:45:40;28.50;;;15.98;;
12816;SDS011;6473;51.552;6.716;2023-11-21T04:48:06;35.72;;;18.33;;
12816;SDS011;6473;51.552;6.716;2023-11-21T04:50:34;33.75;;;18.85;;
12816;SDS011;6473;51.552;6.716;2023-11-21T04:53:01;36.30;;;18.70;;
12816;SDS011;6473;51.552;6.716;2023-11-21T04:58:18;35.33;;;18.45;;
12816;SDS011;6473;51.552;6.716;2023-11-21T05:00:45;33.08;;;19.02;;
12816;SDS011;6473;51.552;6.716;2023-11-21T05:03:12;38.85;;;19.77;;
12816;SDS011;6473;51.552;6.716;2023-11-21T05:05:39;36.85;;;18.60;;
12816;SDS011;6473;51.552;6.716;2023-11-21T05:08:06;32.03;;;18.00;;
12816;SDS011;6473;51.552;6.716;2023-11-21T05:10:33;38.33;;;19.52;;
12816;SDS011;6473;51.552;6.716;2023-11-21T05:13:03;39.42;;;20.08;;
12816;SDS011;6473;51.552;6.716;2023-11-21T05:15:33;38.67;;;19.90;;
12816;SDS011;6473;51.552;6.716;2023-11-21T05:18:00;40.05;;;21.27;;
12816;SDS011;6473;51.552;6.716;2023-11-21T05:20:27;38.40;;;20.02;;
12816;SDS011;6473;51.552;6.716;2023-11-21T05:22:54;37.75;;;20.00;;
12816;SDS011;6473;51.552;6.716;2023-11-21T05:25:21;49.55;;;21.50;;
12816;SDS011;6473;51.552;6.716;2023-11-21T05:27:48;44.95;;;19.98;;
12816;SDS011;6473;51.552;6.716;2023-11-21T05:30:14;36.30;;;20.13;;
12816;SDS011;6473;51.552;6.716;2023-11-21T05:32:43;38.05;;;19.75;;
12816;SDS011;6473;51.552;6.716;2023-11-21T05:35:11;37.30;;;19.30;;
12816;SDS011;6473;51.552;6.716;2023-11-21T05:37:40;42.03;;;21.52;;
12816;SDS011;6473;51.552;6.716;2023-11-21T05:40:08;35.80;;;20.10;;
12816;SDS011;6473;51.552;6.716;2023-11-21T05:42:35;37.08;;;19.00;;
12816;SDS011;6473;51.552;6.716;2023-11-21T05:45:04;41.90;;;20.38;;
12816;SDS011;6473;51.552;6.716;2023-11-21T05:47:35;44.33;;;21.05;;
12816;SDS011;6473;51.552;6.716;2023-11-21T05:50:05;48.40;;;20.10;;
12816;SDS011;6473;51.552;6.716;2023-11-21T05:52:35;42.63;;;20.77;;
12816;SDS011;6473;51.552;6.716;2023-11-21T05:55:02;42.35;;;20.45;;
12816;SDS011;6473;51.552;6.716;2023-11-21T05:57:32;43.97;;;21.40;;
12816;SDS011;6473;51.552;6.716;2023-11-21T06:00:01;45.97;;;20.38;;
12816;SDS011;6473;51.552;6.716;2023-11-21T06:02:36;38.15;;;20.23;;
12816;SDS011;6473;51.552;6.716;2023-11-21T06:05:06;39.70;;;19.40;;
12816;SDS011;6473;51.552;6.716;2023-11-21T06:07:33;40.88;;;19.85;;
12816;SDS011;6473;51.552;6.716;2023-11-21T06:10:00;35.85;;;20.23;;
12816;SDS011;6473;51.552;6.716;2023-11-21T06:12:31;39.20;;;20.42;;
12816;SDS011;6473;51.552;6.716;2023-11-21T06:15:00;36.83;;;19.48;;
12816;SDS011;6473;51.552;6.716;2023-11-21T06:24:39;46.60;;;19.63;;
12816;SDS011;6473;51.552;6.716;2023-11-21T06:27:07;43.50;;;19.65;;
12816;SDS011;6473;51.552;6.716;2023-11-21T06:29:34;43.65;;;20.35;;
12816;SDS011;6473;51.552;6.716;2023-11-21T06:32:02;41.63;;;20.70;;
12816;SDS011;6473;51.552;6.716;2023-11-21T06:34:30;40.05;;;19.63;;
12816;SDS011;6473;51.552;6.716;2023-11-21T06:43:37;40.33;;;19.00;;
12816;SDS011;6473;51.552;6.716;2023-11-21T06:46:04;39.60;;;18.90;;
12816;SDS011;6473;51.552;6.716;2023-11-21T06:48:31;44.97;;;20.02;;
12816;SDS011;6473;51.552;6.716;2023-11-21T06:50:58;43.97;;;20.48;;
12816;SDS011;6473;51.552;6.716;2023-11-21T06:53:25;39.55;;;19.90;;
12816;SDS011;6473;51.552;6.716;2023-11-21T06:59:48;47.33;;;19.95;;
12816;SDS011;6473;51.552;6.716;2023-11-21T07:06:23;38.88;;;19.92;;
12816;SDS011;6473;51.552;6.716;2023-11-21T07:08:50;35.15;;;19.17;;
12816;SDS011;6473;51.552;6.716;2023-11-21T07:18:33;37.15;;;17.98;;
12816;SDS011;6473;51.552;6.716;2023-11-21T07:21:00;39.85;;;18.90;;
12816;SDS011;6473;51.552;6.716;2023-11-21T07:27:28;36.33;;;18.13;;
12816;SDS011;6473;51.552;6.716;2023-11-21T07:37:46;46.10;;;20.23;;
12816;SDS011;6473;51.552;6.716;2023-11-21T07:51:24;34.70;;;17.42;;
12816;SDS011;6473;51.552;6.716;2023-11-21T08:27:37;38.20;;;17.52;;
12816;SDS011;6473;51.552;6.716;2023-11-21T08:30:06;34.92;;;17.17;;
12816;SDS011;6473;51.552;6.716;2023-11-21T08:32:34;32.20;;;16.63;;
12816;SDS011;6473;51.552;6.716;2023-11-21T08:38:13;35.38;;;16.88;;
12816;SDS011;6473;51.552;6.716;2023-11-21T08:40:41;32.58;;;16.85;;
12816;SDS011;6473;51.552;6.716;2023-11-21T08:43:08;35.70;;;17.23;;
12816;SDS011;6473;51.552;6.716;2023-11-21T08:45:36;34.72;;;16.85;;
12816;SDS011;6473;51.552;6.716;2023-11-21T08:48:03;34.08;;;16.20;;
12816;SDS011;6473;51.552;6.716;2023-11-21T08:50:36;39.38;;;17.88;;
12816;SDS011;6473;51.552;6.716;2023-11-21T08:53:03;31.63;;;16.42;;
12816;SDS011;6473;51.552;6.716;2023-11-21T08:55:31;34.58;;;16.92;;
12816;SDS011;6473;51.552;6.716;2023-11-21T09:53:29;38.80;;;16.90;;
12816;SDS011;6473;51.552;6.716;2023-11-21T09:55:58;38.35;;;18.10;;
12816;SDS011;6473;51.552;6.716;2023-11-21T09:58:27;35.70;;;17.25;;
12816;SDS011;6473;51.552;6.716;2023-11-21T10:01:08;36.03;;;17.50;;
12816;SDS011;6473;51.552;6.716;2023-11-21T10:03:35;34.58;;;16.75;;
12816;SDS011;6473;51.552;6.716;2023-11-21T10:06:03;33.15;;;16.73;;
12816;SDS011;6473;51.552;6.716;2023-11-21T10:12:36;28.55;;;15.73;;
12816;SDS011;6473;51.552;6.716;2023-11-21T10:21:56;33.13;;;16.10;;
12816;SDS011;6473;51.552;6.716;2023-11-21T10:24:25;31.75;;;16.48;;
12816;SDS011;6473;51.552;6.716;2023-11-21T10:26:52;29.88;;;16.23;;
12816;SDS011;6473;51.552;6.716;2023-11-21T10:29:20;30.10;;;15.77;;
12816;SDS011;6473;51.552;6.716;2023-11-21T10:31:48;29.48;;;15.30;;
12816;SDS011;6473;51.552;6.716;2023-11-21T10:34:16;30.23;;;16.17;;
12816;SDS011;6473;51.552;6.716;2023-11-21T10:36:53;26.95;;;16.02;;
12816;SDS011;6473;51.552;6.716;2023-11-21T10:50:07;28.88;;;15.52;;
12816;SDS011;6473;51.552;6.716;2023-11-21T10:56:36;26.77;;;13.68;;
12816;SDS011;6473;51.552;6.716;2023-11-21T10:59:10;23.52;;;12.38;;
12816;SDS011;6473;51.552;6.716;2023-11-21T11:12:32;26.05;;;13.38;;
12816;SDS011;6473;51.552;6.716;2023-11-21T11:18:51;24.15;;;13.77;;
12816;SDS011;6473;51.552;6.716;2023-11-21T11:28:41;26.27;;;14.50;;
12816;SDS011;6473;51.552;6.716;2023-11-21T11:31:14;27.10;;;14.15;;
12816;SDS011;6473;51.552;6.716;2023-11-21T11:33:52;20.77;;;12.75;;
12816;SDS011;6473;51.552;6.716;2023-11-21T11:36:25;23.00;;;12.98;;
12816;SDS011;6473;51.552;6.716;2023-11-21T11:41:53;21.50;;;12.70;;
12816;SDS011;6473;51.552;6.716;2023-11-21T11:48:19;21.75;;;12.48;;
12816;SDS011;6473;51.552;6.716;2023-11-21T11:58:38;21.15;;;11.93;;
12816;SDS011;6473;51.552;6.716;2023-11-21T16:26:06;12.00;;;8.20;;
12816;SDS011;6473;51.552;6.716;2023-11-21T16:29:13;11.48;;;8.13;;
12816;SDS011;6473;51.552;6.716;2023-11-21T16:31:40;9.98;;;7.40;;
12816;SDS011;6473;51.552;6.716;2023-11-21T16:34:11;11.10;;;7.90;;
12816;SDS011;6473;51.552;6.716;2023-11-21T16:36:38;10.13;;;7.70;;
12816;SDS011;6473;51.552;6.716;2023-11-21T16:39:06;9.52;;;7.57;;
12816;SDS011;6473;51.552;6.716;2023-11-21T16:41:34;10.77;;;8.02;;
12816;SDS011;6473;51.552;6.716;2023-11-21T16:44:01;12.15;;;7.95;;
12816;SDS011;6473;51.552;6.716;2023-11-21T16:46:28;9.95;;;7.43;;
12816;SDS011;6473;51.552;6.716;2023-11-21T16:48:55;12.30;;;8.48;;
12816;SDS011;6473;51.552;6.716;2023-11-21T16:51:22;10.70;;;7.55;;
12816;SDS011;6473;51.552;6.716;2023-11-21T16:53:49;12.20;;;8.73;;
12816;SDS011;6473;51.552;6.716;2023-11-21T16:56:20;11.85;;;8.55;;
12816;SDS011;6473;51.552;6.716;2023-11-21T16:58:54;9.40;;;7.72;;
12816;SDS011;6473;51.552;6.716;2023-11-21T17:01:21;10.20;;;8.02;;
12816;SDS011;6473;51.552;6.716;2023-11-21T17:03:50;10.15;;;7.97;;
12816;SDS011;6473;51.552;6.716;2023-11-21T17:06:17;9.02;;;7.25;;
12816;SDS011;6473;51.552;6.716;2023-11-21T17:08:44;9.07;;;7.25;;
12816;SDS011;6473;51.552;6.716;2023-11-21T17:11:11;10.38;;;7.60;;
12816;SDS011;6473;51.552;6.716;2023-11-21T17:13:38;9.60;;;6.68;;
12816;SDS011;6473;51.552;6.716;2023-11-21T17:16:07;8.32;;;7.00;;
12816;SDS011;6473;51.552;6.716;2023-11-21T17:18:36;9.50;;;6.78;;
12816;SDS011;6473;51.552;6.716;2023-11-21T17:21:03;10.23;;;6.67;;
12816;SDS011;6473;51.552;6.716;2023-11-21T17:23:30;9.07;;;6.28;;
12816;SDS011;6473;51.552;6.716;2023-11-21T17:26:01;9.77;;;7.18;;
12816;SDS011;6473;51.552;6.716;2023-11-21T17:28:40;9.70;;;7.07;;
12816;SDS011;6473;51.552;6.716;2023-11-21T17:31:08;7.75;;;6.95;;
12816;SDS011;6473;51.552;6.716;2023-11-21T17:33:35;8.13;;;7.10;;
12816;SDS011;6473;51.552;6.716;2023-11-21T17:36:03;8.80;;;6.82;;
12816;SDS011;6473;51.552;6.716;2023-11-21T17:38:30;9.77;;;6.63;;
12816;SDS011;6473;51.552;6.716;2023-11-21T17:40:57;6.82;;;5.85;;
12816;SDS011;6473;51.552;6.716;2023-11-21T17:43:25;8.23;;;6.18;;
12816;SDS011;6473;51.552;6.716;2023-11-21T17:46:00;6.70;;;5.32;;
12816;SDS011;6473;51.552;6.716;2023-11-21T17:56:09;4.80;;;4.22;;
12816;SDS011;6473;51.552;6.716;2023-11-21T18:16:38;5.55;;;4.78;;
12816;SDS011;6473;51.552;6.716;2023-11-21T18:19:07;6.63;;;5.07;;
12816;SDS011;6473;51.552;6.716;2023-11-21T18:21:41;6.17;;;5.57;;
12816;SDS011;6473;51.552;6.716;2023-11-21T18:26:58;5.93;;;5.22;;
12816;SDS011;6473;51.552;6.716;2023-11-21T18:29:25;6.90;;;5.30;;
12816;SDS011;6473;51.552;6.716;2023-11-21T18:32:07;7.55;;;5.68;;
12816;SDS011;6473;51.552;6.716;2023-11-21T18:34:36;8.30;;;5.80;;
12816;SDS011;6473;51.552;6.716;2023-11-21T18:39:57;9.23;;;6.45;;
12816;SDS011;6473;51.552;6.716;2023-11-21T18:42:24;8.60;;;6.05;;
12816;SDS011;6473;51.552;6.716;2023-11-21T18:44:57;8.02;;;6.72;;
12816;SDS011;6473;51.552;6.716;2023-11-21T18:50:52;8.25;;;5.78;;
12816;SDS011;6473;51.552;6.716;2023-11-21T18:53:20;7.72;;;6.05;;
12816;SDS011;6473;51.552;6.716;2023-11-21T18:55:48;9.07;;;6.90;;
12816;SDS011;6473;51.552;6.716;2023-11-21T18:58:15;8.15;;;6.40;;
12816;SDS011;6473;51.552;6.716;2023-11-21T19:00:42;9.38;;;6.68;;
12816;SDS011;6473;51.552;6.716;2023-11-21T19:08:47;8.40;;;6.40;;
12816;SDS011;6473;51.552;6.716;2023-11-21T19:11:14;9.82;;;6.38;;
12816;SDS011;6473;51.552;6.716;2023-11-21T19:13:41;9.43;;;6.82;;
12816;SDS011;6473;51.552;6.716;2023-11-21T19:16:08;10.45;;;6.95;;
12816;SDS011;6473;51.552;6.716;2023-11-21T19:18:35;10.73;;;6.65;;
12816;SDS011;6473;51.552;6.716;2023-11-21T19:21:03;9.52;;;6.50;;
12816;SDS011;6473;51.552;6.716;2023-11-21T19:23:32;8.18;;;6.43;;
12816;SDS011;6473;51.552;6.716;2023-11-21T19:25:59;11.25;;;6.72;;
12816;SDS011;6473;51.552;6.716;2023-11-21T19:28:26;8.85;;;6.28;;
12816;SDS011;6473;51.552;6.716;2023-11-21T19:30:53;13.18;;;7.65;;
12816;SDS011;6473;51.552;6.716;2023-11-21T19:33:21;9.50;;;7.35;;
12816;SDS011;6473;51.552;6.716;2023-11-21T19:35:49;10.82;;;7.40;;
12816;SDS011;6473;51.552;6.716;2023-11-21T19:38:26;9.57;;;7.73;;
12816;SDS011;6473;51.552;6.716;2023-11-21T19:44:48;12.47;;;8.00;;
12816;SDS011;6473;51.552;6.716;2023-11-21T19:51:03;12.60;;;8.55;;
12816;SDS011;6473;51.552;6.716;2023-11-21T20:07:40;10.37;;;8.83;;
12816;SDS011;6473;51.552;6.716;2023-11-21T20:10:09;11.60;;;9.02;;
12816;SDS011;6473;51.552;6.716;2023-11-21T20:12:36;14.90;;;9.43;;
12816;SDS011;6473;51.552;6.716;2023-11-21T20:15:04;11.20;;;9.47;;
12816;SDS011;6473;51.552;6.716;2023-11-21T20:17:32;11.40;;;8.83;;
12816;SDS011;6473;51.552;6.716;2023-11-21T20:20:01;12.38;;;9.82;;
12816;SDS011;6473;51.552;6.716;2023-11-21T20:22:38;13.73;;;9.00;;
12816;SDS011;6473;51.552;6.716;2023-11-21T20:25:05;14.43;;;10.32;;
12816;SDS011;6473;51.552;6.716;2023-11-21T20:27:34;12.23;;;8.85;;
12816;SDS011;6473;51.552;6.716;2023-11-21T20:30:03;16.08;;;10.55;;
12816;SDS011;6473;51.552;6.716;2023-11-21T20:32:33;13.88;;;9.85;;
12816;SDS011;6473;51.552;6.716;2023-11-21T20:35:08;15.45;;;10.38;;
12816;SDS011;6473;51.552;6.716;2023-11-21T20:40:38;12.98;;;9.57;;
12816;SDS011;6473;51.552;6.716;2023-11-21T20:43:05;12.23;;;9.20;;
12816;SDS011;6473;51.552;6.716;2023-11-21T20:45:58;12.40;;;9.00;;
12816;SDS011;6473;51.552;6.716;2023-11-21T20:48:38;11.25;;;8.65;;
12816;SDS011;6473;51.552;6.716;2023-11-21T20:54:55;12.98;;;8.40;;
12816;SDS011;6473;51.552;6.716;2023-11-21T21:00:18;11.63;;;8.95;;
12816;SDS011;6473;51.552;6.716;2023-11-21T21:02:45;11.33;;;8.27;;
12816;SDS011;6473;51.552;6.716;2023-11-21T21:05:17;11.20;;;8.70;;
12816;SDS011;6473;51.552;6.716;2023-11-21T21:07:45;11.52;;;8.63;;
12816;SDS011;6473;51.552;6.716;2023-11-21T21:10:28;13.52;;;8.45;;
12816;SDS011;6473;51.552;6.716;2023-11-21T21:12:56;10.30;;;8.00;;
12816;SDS011;6473;51.552;6.716;2023-11-21T21:15:23;10.90;;;8.45;;
12816;SDS011;6473;51.552;6.716;2023-11-21T21:21:00;10.87;;;8.63;;
12816;SDS011;6473;51.552;6.716;2023-11-21T21:23:27;11.18;;;8.75;;
12816;SDS011;6473;51.552;6.716;2023-11-21T21:25:55;13.03;;;8.70;;
12816;SDS011;6473;51.552;6.716;2023-11-21T21:28:36;13.45;;;8.38;;
12816;SDS011;6473;51.552;6.716;2023-11-21T21:31:03;12.50;;;7.95;;
12816;SDS011;6473;51.552;6.716;2023-11-21T21:33:30;10.32;;;7.90;;
12816;SDS011;6473;51.552;6.716;2023-11-21T21:36:02;11.00;;;8.00;;
12816;SDS011;6473;51.552;6.716;2023-11-21T21:42:17;10.40;;;7.85;;
12816;SDS011;6473;51.552;6.716;2023-11-21T21:44:57;12.40;;;7.88;;
12816;SDS011;6473;51.552;6.716;2023-11-21T21:47:24;11.45;;;7.90;;
12816;SDS011;6473;51.552;6.716;2023-11-21T21:49:51;9.07;;;7.70;;
12816;SDS011;6473;51.552;6.716;2023-11-21T21:52:18;9.10;;;7.43;;
12816;SDS011;6473;51.552;6.716;2023-11-21T21:54:45;11.35;;;8.60;;
12816;SDS011;6473;51.552;6.716;2023-11-21T21:57:15;11.40;;;7.93;;
12816;SDS011;6473;51.552;6.716;2023-11-21T21:59:42;12.83;;;8.17;;
12816;SDS011;6473;51.552;6.716;2023-11-21T22:02:10;10.30;;;7.50;;
12816;SDS011;6473;51.552;6.716;2023-11-21T22:04:37;12.90;;;8.63;;
12816;SDS011;6473;51.552;6.716;2023-11-21T22:07:04;12.87;;;9.07;;
12816;SDS011;6473;51.552;6.716;2023-11-21T22:09:31;11.43;;;8.57;;
12816;SDS011;6473;51.552;6.716;2023-11-21T22:12:00;14.13;;;8.67;;
12816;SDS011;6473;51.552;6.716;2023-11-21T22:14:27;10.63;;;8.13;;
12816;SDS011;6473;51.552;6.716;2023-11-21T22:16:54;12.67;;;8.63;;
12816;SDS011;6473;51.552;6.716;2023-11-21T22:19:22;11.27;;;8.20;;
12816;SDS011;6473;51.552;6.716;2023-11-21T22:21:49;10.10;;;7.97;;
12816;SDS011;6473;51.552;6.716;2023-11-21T22:24:16;10.87;;;8.30;;
12816;SDS011;6473;51.552;6.716;2023-11-21T22:26:43;11.80;;;8.23;;
12816;SDS011;6473;51.552;6.716;2023-11-21T22:29:10;11.57;;;7.77;;
12816;SDS011;6473;51.552;6.716;2023-11-21T22:31:39;10.03;;;7.93;;
12816;SDS011;6473;51.552;6.716;2023-11-21T22:34:07;12.77;;;8.17;;
12816;SDS011;6473;51.552;6.716;2023-11-21T22:36:35;10.07;;;7.60;;
12816;SDS011;6473;51.552;6.716;2023-11-21T22:39:02;11.55;;;7.93;;
12816;SDS011;6473;51.552;6.716;2023-11-21T22:41:30;10.57;;;8.07;;
12816;SDS011;6473;51.552;6.716;2023-11-21T22:43:57;9.87;;;7.47;;
12816;SDS011;6473;51.552;6.716;2023-11-21T22:46:24;11.33;;;8.23;;
12816;SDS011;6473;51.552;6.716;2023-11-21T22:48:51;10.60;;;7.63;;
12816;SDS011;6473;51.552;6.716;2023-11-21T22:51:18;9.37;;;7.57;;
12816;SDS011;6473;51.552;6.716;2023-11-21T22:53:46;11.90;;;8.13;;
12816;SDS011;6473;51.552;6.716;2023-11-21T22:56:13;9.37;;;7.07;;
12816;SDS011;6473;51.552;6.716;2023-11-21T22:58:40;9.30;;;7.17;;
12816;SDS011;6473;51.552;6.716;2023-11-21T23:12:19;12.13;;;8.00;;
12816;SDS011;6473;51.552;6.716;2023-11-21T23:14:46;11.37;;;7.67;;
12816;SDS011;6473;51.552;6.716;2023-11-21T23:17:13;10.63;;;7.67;;
12816;SDS011;6473;51.552;6.716;2023-11-21T23:19:40;11.30;;;7.83;;
12816;SDS011;6473;51.552;6.716;2023-11-21T23:22:07;11.33;;;7.83;;
12816;SDS011;6473;51.552;6.716;2023-11-21T23:24:35;12.73;;;7.93;;
12816;SDS011;6473;51.552;6.716;2023-11-21T23:27:02;10.30;;;7.43;;
12816;SDS011;6473;51.552;6.716;2023-11-21T23:29:31;10.23;;;7.93;;
12816;SDS011;6473;51.552;6.716;2023-11-21T23:34:31;10.60;;;7.17;;
12816;SDS011;6473;51.552;6.716;2023-11-21T23:36:57;11.50;;;7.17;;
12816;SDS011;6473;51.552;6.716;2023-11-21T23:39:24;9.00;;;7.13;;
12816;SDS011;6473;51.552;6.716;2023-11-21T23:41:51;8.63;;;7.10;;
12816;SDS011;6473;51.552;6.716;2023-11-21T23:47:07;9.07;;;6.70;;
12816;SDS011;6473;51.552;6.716;2023-11-21T23:49:33;8.67;;;6.80;;
12816;SDS011;6473;51.552;6.716;2023-11-21T23:52:02;10.47;;;7.63;;
12816;SDS011;6473;51.552;6.716;2023-11-21T23:54:29;8.67;;;6.80;;
12816;SDS011;6473;51.552;6.716;2023-11-21T23:56:56;9.93;;;7.40;;
12816;SDS011;6473;51.552;6.716;2023-11-21T23:59:24;11.93;;;7.50;;
